sensor_id;sensor_type;location;lat;lon;timestamp;P1;durP1;ratioP1;P2;durP2;ratioP2
24650;SDS011;12783;48.824;8.662;2022-07-09T00:01:41;5.60;;;1.50;;
24650;SDS011;12783;48.824;8.662;2022-07-09T00:04:08;5.22;;;1.52;;
24650;SDS011;12783;48.824;8.662;2022-07-09T00:06:35;4.43;;;1.38;;
24650;SDS011;12783;48.824;8.662;2022-07-09T00:09:03;2.38;;;1.15;;
24650;SDS011;12783;48.824;8.662;2022-07-09T00:11:30;5.75;;;1.58;;
24650;SDS011;12783;48.824;8.662;2022-07-09T00:13:56;3.90;;;1.60;;
24650;SDS011;12783;48.824;8.662;2022-07-09T00:16:24;2.80;;;1.20;;
24650;SDS011;12783;48.824;8.662;2022-07-09T00:18:51;6.03;;;1.50;;
24650;SDS011;12783;48.824;8.662;2022-07-09T00:21:17;3.63;;;1.20;;
24650;SDS011;12783;48.824;8.662;2022-07-09T00:23:44;3.40;;;1.48;;
24650;SDS011;12783;48.824;8.662;2022-07-09T00:26:11;5.28;;;1.58;;
24650;SDS011;12783;48.824;8.662;2022-07-09T00:28:38;4.68;;;1.40;;
24650;SDS011;12783;48.824;8.662;2022-07-09T00:31:05;3.15;;;1.50;;
24650;SDS011;12783;48.824;8.662;2022-07-09T00:33:32;4.45;;;1.42;;
24650;SDS011;12783;48.824;8.662;2022-07-09T00:35:59;5.60;;;1.33;;
24650;SDS011;12783;48.824;8.662;2022-07-09T00:38:26;2.10;;;1.40;;
24650;SDS011;12783;48.824;8.662;2022-07-09T00:40:53;4.18;;;1.60;;
24650;SDS011;12783;48.824;8.662;2022-07-09T00:43:20;1.65;;;1.27;;
24650;SDS011;12783;48.824;8.662;2022-07-09T00:45:49;4.22;;;1.33;;
24650;SDS011;12783;48.824;8.662;2022-07-09T00:48:16;3.65;;;1.40;;
24650;SDS011;12783;48.824;8.662;2022-07-09T00:50:43;3.65;;;1.58;;
24650;SDS011;12783;48.824;8.662;2022-07-09T00:53:12;7.25;;;1.58;;
24650;SDS011;12783;48.824;8.662;2022-07-09T00:55:42;3.15;;;1.13;;
24650;SDS011;12783;48.824;8.662;2022-07-09T00:58:10;4.78;;;1.45;;
24650;SDS011;12783;48.824;8.662;2022-07-09T01:00:38;3.63;;;1.40;;
24650;SDS011;12783;48.824;8.662;2022-07-09T01:03:07;6.28;;;1.45;;
24650;SDS011;12783;48.824;8.662;2022-07-09T01:05:34;5.50;;;1.30;;
24650;SDS011;12783;48.824;8.662;2022-07-09T01:08:04;3.65;;;1.42;;
24650;SDS011;12783;48.824;8.662;2022-07-09T01:10:33;3.95;;;1.30;;
24650;SDS011;12783;48.824;8.662;2022-07-09T01:13:02;3.58;;;1.35;;
24650;SDS011;12783;48.824;8.662;2022-07-09T01:15:30;3.72;;;1.42;;
24650;SDS011;12783;48.824;8.662;2022-07-09T01:17:58;5.53;;;1.40;;
24650;SDS011;12783;48.824;8.662;2022-07-09T01:20:26;2.50;;;1.58;;
24650;SDS011;12783;48.824;8.662;2022-07-09T01:22:57;2.83;;;1.40;;
24650;SDS011;12783;48.824;8.662;2022-07-09T01:25:27;3.70;;;1.55;;
24650;SDS011;12783;48.824;8.662;2022-07-09T01:28:03;2.55;;;1.13;;
24650;SDS011;12783;48.824;8.662;2022-07-09T01:30:36;4.75;;;1.55;;
24650;SDS011;12783;48.824;8.662;2022-07-09T01:33:06;8.98;;;1.60;;
24650;SDS011;12783;48.824;8.662;2022-07-09T01:35:33;3.40;;;1.20;;
24650;SDS011;12783;48.824;8.662;2022-07-09T01:38:00;3.22;;;1.50;;
24650;SDS011;12783;48.824;8.662;2022-07-09T01:40:27;4.35;;;1.65;;
24650;SDS011;12783;48.824;8.662;2022-07-09T01:42:54;2.80;;;1.40;;
24650;SDS011;12783;48.824;8.662;2022-07-09T01:45:21;5.10;;;1.35;;
24650;SDS011;12783;48.824;8.662;2022-07-09T01:47:48;2.75;;;1.40;;
24650;SDS011;12783;48.824;8.662;2022-07-09T01:50:15;3.53;;;1.48;;
24650;SDS011;12783;48.824;8.662;2022-07-09T01:52:42;1.95;;;1.40;;
24650;SDS011;12783;48.824;8.662;2022-07-09T01:55:09;5.03;;;1.50;;
24650;SDS011;12783;48.824;8.662;2022-07-09T01:57:36;6.32;;;1.33;;
24650;SDS011;12783;48.824;8.662;2022-07-09T02:00:03;2.33;;;1.30;;
24650;SDS011;12783;48.824;8.662;2022-07-09T02:02:31;5.97;;;1.42;;
24650;SDS011;12783;48.824;8.662;2022-07-09T02:04:58;3.05;;;1.40;;
24650;SDS011;12783;48.824;8.662;2022-07-09T02:07:25;6.60;;;1.88;;
24650;SDS011;12783;48.824;8.662;2022-07-09T02:09:52;5.65;;;1.60;;
24650;SDS011;12783;48.824;8.662;2022-07-09T02:12:19;6.32;;;1.52;;
24650;SDS011;12783;48.824;8.662;2022-07-09T02:14:46;6.70;;;1.52;;
24650;SDS011;12783;48.824;8.662;2022-07-09T02:17:13;7.38;;;1.63;;
24650;SDS011;12783;48.824;8.662;2022-07-09T02:19:40;6.38;;;1.80;;
24650;SDS011;12783;48.824;8.662;2022-07-09T02:22:07;5.00;;;1.60;;
24650;SDS011;12783;48.824;8.662;2022-07-09T02:24:34;4.10;;;1.38;;
24650;SDS011;12783;48.824;8.662;2022-07-09T02:27:01;3.97;;;1.60;;
24650;SDS011;12783;48.824;8.662;2022-07-09T02:29:28;5.68;;;1.60;;
24650;SDS011;12783;48.824;8.662;2022-07-09T02:31:55;5.38;;;1.75;;
24650;SDS011;12783;48.824;8.662;2022-07-09T02:34:23;5.38;;;1.63;;
24650;SDS011;12783;48.824;8.662;2022-07-09T02:36:51;4.93;;;1.85;;
24650;SDS011;12783;48.824;8.662;2022-07-09T02:39:18;2.95;;;1.67;;
24650;SDS011;12783;48.824;8.662;2022-07-09T02:41:45;5.65;;;1.58;;
24650;SDS011;12783;48.824;8.662;2022-07-09T02:44:12;5.55;;;1.98;;
24650;SDS011;12783;48.824;8.662;2022-07-09T02:46:39;7.30;;;1.50;;
24650;SDS011;12783;48.824;8.662;2022-07-09T02:49:06;4.22;;;1.83;;
24650;SDS011;12783;48.824;8.662;2022-07-09T02:51:33;4.32;;;1.40;;
24650;SDS011;12783;48.824;8.662;2022-07-09T02:54:00;4.10;;;1.60;;
24650;SDS011;12783;48.824;8.662;2022-07-09T02:56:27;4.20;;;1.70;;
24650;SDS011;12783;48.824;8.662;2022-07-09T02:58:54;4.70;;;1.63;;
24650;SDS011;12783;48.824;8.662;2022-07-09T03:01:20;5.90;;;1.55;;
24650;SDS011;12783;48.824;8.662;2022-07-09T03:03:47;3.25;;;1.70;;
24650;SDS011;12783;48.824;8.662;2022-07-09T03:06:14;4.93;;;1.52;;
24650;SDS011;12783;48.824;8.662;2022-07-09T03:08:41;3.05;;;1.40;;
24650;SDS011;12783;48.824;8.662;2022-07-09T03:11:08;2.85;;;1.70;;
24650;SDS011;12783;48.824;8.662;2022-07-09T03:13:35;5.88;;;1.70;;
24650;SDS011;12783;48.824;8.662;2022-07-09T03:16:03;3.85;;;1.50;;
24650;SDS011;12783;48.824;8.662;2022-07-09T03:18:30;6.80;;;1.83;;
24650;SDS011;12783;48.824;8.662;2022-07-09T03:20:58;4.60;;;1.60;;
24650;SDS011;12783;48.824;8.662;2022-07-09T03:23:25;6.65;;;1.70;;
24650;SDS011;12783;48.824;8.662;2022-07-09T03:25:52;7.03;;;1.55;;
24650;SDS011;12783;48.824;8.662;2022-07-09T03:28:19;5.35;;;1.90;;
24650;SDS011;12783;48.824;8.662;2022-07-09T03:30:45;4.60;;;1.63;;
24650;SDS011;12783;48.824;8.662;2022-07-09T03:33:12;4.38;;;1.58;;
24650;SDS011;12783;48.824;8.662;2022-07-09T03:35:39;3.72;;;1.70;;
24650;SDS011;12783;48.824;8.662;2022-07-09T03:38:06;4.93;;;1.70;;
24650;SDS011;12783;48.824;8.662;2022-07-09T03:40:33;5.18;;;1.63;;
24650;SDS011;12783;48.824;8.662;2022-07-09T03:43:00;4.28;;;1.52;;
24650;SDS011;12783;48.824;8.662;2022-07-09T03:45:27;4.93;;;1.90;;
24650;SDS011;12783;48.824;8.662;2022-07-09T03:47:53;2.75;;;1.40;;
24650;SDS011;12783;48.824;8.662;2022-07-09T03:50:20;5.10;;;1.60;;
24650;SDS011;12783;48.824;8.662;2022-07-09T03:52:47;6.10;;;1.90;;
24650;SDS011;12783;48.824;8.662;2022-07-09T03:55:15;3.20;;;1.75;;
24650;SDS011;12783;48.824;8.662;2022-07-09T03:57:42;4.20;;;1.58;;
24650;SDS011;12783;48.824;8.662;2022-07-09T04:00:09;4.65;;;1.67;;
24650;SDS011;12783;48.824;8.662;2022-07-09T04:02:37;3.95;;;1.63;;
24650;SDS011;12783;48.824;8.662;2022-07-09T04:05:05;3.55;;;1.50;;
24650;SDS011;12783;48.824;8.662;2022-07-09T04:07:33;4.97;;;1.63;;
24650;SDS011;12783;48.824;8.662;2022-07-09T04:10:01;5.85;;;1.70;;
24650;SDS011;12783;48.824;8.662;2022-07-09T04:12:28;3.92;;;1.52;;
24650;SDS011;12783;48.824;8.662;2022-07-09T04:14:54;3.88;;;1.63;;
24650;SDS011;12783;48.824;8.662;2022-07-09T04:17:22;4.13;;;1.70;;
24650;SDS011;12783;48.824;8.662;2022-07-09T04:19:49;7.85;;;1.70;;
24650;SDS011;12783;48.824;8.662;2022-07-09T04:22:15;3.35;;;1.50;;
24650;SDS011;12783;48.824;8.662;2022-07-09T04:24:42;4.13;;;1.50;;
24650;SDS011;12783;48.824;8.662;2022-07-09T04:27:09;3.95;;;1.75;;
24650;SDS011;12783;48.824;8.662;2022-07-09T04:29:36;4.20;;;1.35;;
24650;SDS011;12783;48.824;8.662;2022-07-09T04:32:03;5.18;;;1.45;;
24650;SDS011;12783;48.824;8.662;2022-07-09T04:34:30;5.97;;;1.98;;
24650;SDS011;12783;48.824;8.662;2022-07-09T04:36:57;2.33;;;1.60;;
24650;SDS011;12783;48.824;8.662;2022-07-09T04:39:24;4.28;;;1.55;;
24650;SDS011;12783;48.824;8.662;2022-07-09T04:41:51;5.20;;;1.80;;
24650;SDS011;12783;48.824;8.662;2022-07-09T04:44:18;5.20;;;1.73;;
24650;SDS011;12783;48.824;8.662;2022-07-09T04:46:45;7.40;;;1.60;;
24650;SDS011;12783;48.824;8.662;2022-07-09T04:49:12;2.88;;;1.50;;
24650;SDS011;12783;48.824;8.662;2022-07-09T04:51:38;3.75;;;1.80;;
24650;SDS011;12783;48.824;8.662;2022-07-09T04:54:05;2.13;;;1.55;;
24650;SDS011;12783;48.824;8.662;2022-07-09T04:56:32;4.70;;;1.75;;
24650;SDS011;12783;48.824;8.662;2022-07-09T04:58:59;2.55;;;1.58;;
24650;SDS011;12783;48.824;8.662;2022-07-09T05:01:28;5.03;;;1.60;;
24650;SDS011;12783;48.824;8.662;2022-07-09T05:03:56;3.38;;;1.77;;
24650;SDS011;12783;48.824;8.662;2022-07-09T05:06:23;3.13;;;1.60;;
24650;SDS011;12783;48.824;8.662;2022-07-09T05:08:50;5.57;;;1.73;;
24650;SDS011;12783;48.824;8.662;2022-07-09T05:11:17;4.68;;;1.75;;
24650;SDS011;12783;48.824;8.662;2022-07-09T05:13:44;4.18;;;1.60;;
24650;SDS011;12783;48.824;8.662;2022-07-09T05:16:14;3.35;;;1.50;;
24650;SDS011;12783;48.824;8.662;2022-07-09T05:18:41;4.38;;;1.92;;
24650;SDS011;12783;48.824;8.662;2022-07-09T05:21:09;3.42;;;1.40;;
24650;SDS011;12783;48.824;8.662;2022-07-09T05:23:36;4.78;;;1.30;;
24650;SDS011;12783;48.824;8.662;2022-07-09T05:26:03;3.42;;;1.35;;
24650;SDS011;12783;48.824;8.662;2022-07-09T05:28:30;2.83;;;1.30;;
24650;SDS011;12783;48.824;8.662;2022-07-09T05:30:58;4.35;;;1.60;;
24650;SDS011;12783;48.824;8.662;2022-07-09T05:33:45;4.82;;;1.90;;
24650;SDS011;12783;48.824;8.662;2022-07-09T05:36:15;20.90;;;14.73;;
24650;SDS011;12783;48.824;8.662;2022-07-09T05:38:46;29.08;;;20.63;;
24650;SDS011;12783;48.824;8.662;2022-07-09T05:41:13;14.65;;;6.80;;
24650;SDS011;12783;48.824;8.662;2022-07-09T05:43:44;6.78;;;3.28;;
24650;SDS011;12783;48.824;8.662;2022-07-09T05:46:11;3.90;;;2.00;;
24650;SDS011;12783;48.824;8.662;2022-07-09T05:48:38;3.97;;;1.70;;
24650;SDS011;12783;48.824;8.662;2022-07-09T05:51:05;3.20;;;1.95;;
24650;SDS011;12783;48.824;8.662;2022-07-09T05:53:31;2.33;;;1.60;;
24650;SDS011;12783;48.824;8.662;2022-07-09T05:55:58;4.63;;;1.88;;
24650;SDS011;12783;48.824;8.662;2022-07-09T05:58:26;5.72;;;1.83;;
24650;SDS011;12783;48.824;8.662;2022-07-09T06:00:52;4.70;;;1.67;;
24650;SDS011;12783;48.824;8.662;2022-07-09T06:03:20;6.20;;;1.60;;
24650;SDS011;12783;48.824;8.662;2022-07-09T06:05:46;2.80;;;1.48;;
24650;SDS011;12783;48.824;8.662;2022-07-09T06:08:13;5.63;;;1.60;;
24650;SDS011;12783;48.824;8.662;2022-07-09T06:10:40;4.93;;;1.50;;
24650;SDS011;12783;48.824;8.662;2022-07-09T06:13:07;6.22;;;1.90;;
24650;SDS011;12783;48.824;8.662;2022-07-09T06:15:34;3.92;;;1.27;;
24650;SDS011;12783;48.824;8.662;2022-07-09T06:18:01;4.35;;;1.50;;
24650;SDS011;12783;48.824;8.662;2022-07-09T06:20:28;2.72;;;1.40;;
24650;SDS011;12783;48.824;8.662;2022-07-09T06:22:55;2.53;;;1.42;;
24650;SDS011;12783;48.824;8.662;2022-07-09T06:25:22;5.05;;;1.38;;
24650;SDS011;12783;48.824;8.662;2022-07-09T06:27:49;8.85;;;1.20;;
24650;SDS011;12783;48.824;8.662;2022-07-09T06:30:16;5.38;;;1.30;;
24650;SDS011;12783;48.824;8.662;2022-07-09T06:32:42;3.70;;;1.35;;
24650;SDS011;12783;48.824;8.662;2022-07-09T06:35:09;3.88;;;1.10;;
24650;SDS011;12783;48.824;8.662;2022-07-09T06:37:36;2.28;;;1.13;;
24650;SDS011;12783;48.824;8.662;2022-07-09T06:40:04;3.60;;;0.80;;
24650;SDS011;12783;48.824;8.662;2022-07-09T06:42:32;1.92;;;0.95;;
24650;SDS011;12783;48.824;8.662;2022-07-09T06:45:01;5.32;;;1.13;;
24650;SDS011;12783;48.824;8.662;2022-07-09T06:47:28;3.83;;;1.20;;
24650;SDS011;12783;48.824;8.662;2022-07-09T06:49:55;6.05;;;1.30;;
24650;SDS011;12783;48.824;8.662;2022-07-09T06:52:22;4.93;;;1.23;;
24650;SDS011;12783;48.824;8.662;2022-07-09T06:54:49;1.88;;;1.02;;
24650;SDS011;12783;48.824;8.662;2022-07-09T06:57:16;6.30;;;1.40;;
24650;SDS011;12783;48.824;8.662;2022-07-09T06:59:43;4.85;;;0.90;;
24650;SDS011;12783;48.824;8.662;2022-07-09T07:02:14;5.10;;;1.10;;
24650;SDS011;12783;48.824;8.662;2022-07-09T07:04:44;3.65;;;1.10;;
24650;SDS011;12783;48.824;8.662;2022-07-09T07:07:11;5.20;;;0.98;;
24650;SDS011;12783;48.824;8.662;2022-07-09T07:09:38;4.75;;;0.93;;
24650;SDS011;12783;48.824;8.662;2022-07-09T07:12:05;4.88;;;1.33;;
24650;SDS011;12783;48.824;8.662;2022-07-09T07:14:32;3.13;;;1.10;;
24650;SDS011;12783;48.824;8.662;2022-07-09T07:16:59;3.67;;;1.23;;
24650;SDS011;12783;48.824;8.662;2022-07-09T07:19:26;5.85;;;1.20;;
24650;SDS011;12783;48.824;8.662;2022-07-09T07:21:53;3.38;;;1.00;;
24650;SDS011;12783;48.824;8.662;2022-07-09T07:24:20;4.22;;;0.90;;
24650;SDS011;12783;48.824;8.662;2022-07-09T07:26:48;5.18;;;1.17;;
24650;SDS011;12783;48.824;8.662;2022-07-09T07:29:15;9.77;;;1.42;;
24650;SDS011;12783;48.824;8.662;2022-07-09T07:31:44;5.13;;;1.42;;
24650;SDS011;12783;48.824;8.662;2022-07-09T07:34:11;4.72;;;1.20;;
24650;SDS011;12783;48.824;8.662;2022-07-09T07:36:42;3.60;;;1.00;;
24650;SDS011;12783;48.824;8.662;2022-07-09T07:39:10;2.85;;;1.25;;
24650;SDS011;12783;48.824;8.662;2022-07-09T07:41:36;2.38;;;1.23;;
24650;SDS011;12783;48.824;8.662;2022-07-09T07:44:04;3.80;;;1.00;;
24650;SDS011;12783;48.824;8.662;2022-07-09T07:46:31;2.47;;;1.20;;
24650;SDS011;12783;48.824;8.662;2022-07-09T07:48:58;2.63;;;1.00;;
24650;SDS011;12783;48.824;8.662;2022-07-09T07:51:27;2.58;;;0.98;;
24650;SDS011;12783;48.824;8.662;2022-07-09T07:53:54;3.33;;;1.00;;
24650;SDS011;12783;48.824;8.662;2022-07-09T07:56:21;1.85;;;1.02;;
24650;SDS011;12783;48.824;8.662;2022-07-09T07:58:48;3.13;;;1.00;;
24650;SDS011;12783;48.824;8.662;2022-07-09T08:01:15;1.80;;;0.85;;
24650;SDS011;12783;48.824;8.662;2022-07-09T08:03:43;3.38;;;1.00;;
24650;SDS011;12783;48.824;8.662;2022-07-09T08:06:12;4.18;;;1.30;;
24650;SDS011;12783;48.824;8.662;2022-07-09T08:08:39;2.90;;;1.00;;
24650;SDS011;12783;48.824;8.662;2022-07-09T08:11:07;3.67;;;1.00;;
24650;SDS011;12783;48.824;8.662;2022-07-09T08:13:36;2.28;;;1.10;;
24650;SDS011;12783;48.824;8.662;2022-07-09T08:16:03;3.75;;;0.88;;
24650;SDS011;12783;48.824;8.662;2022-07-09T08:18:30;2.45;;;0.95;;
24650;SDS011;12783;48.824;8.662;2022-07-09T08:20:57;4.03;;;1.10;;
24650;SDS011;12783;48.824;8.662;2022-07-09T08:23:25;2.38;;;1.00;;
24650;SDS011;12783;48.824;8.662;2022-07-09T08:25:57;1.98;;;0.73;;
24650;SDS011;12783;48.824;8.662;2022-07-09T08:28:27;2.92;;;1.00;;
24650;SDS011;12783;48.824;8.662;2022-07-09T08:30:54;4.82;;;1.00;;
24650;SDS011;12783;48.824;8.662;2022-07-09T08:33:20;3.33;;;1.40;;
24650;SDS011;12783;48.824;8.662;2022-07-09T08:35:47;3.38;;;1.40;;
24650;SDS011;12783;48.824;8.662;2022-07-09T08:38:14;5.70;;;1.33;;
24650;SDS011;12783;48.824;8.662;2022-07-09T08:40:41;4.57;;;1.50;;
24650;SDS011;12783;48.824;8.662;2022-07-09T08:43:08;3.13;;;1.45;;
24650;SDS011;12783;48.824;8.662;2022-07-09T08:45:36;3.88;;;1.30;;
24650;SDS011;12783;48.824;8.662;2022-07-09T08:48:03;5.13;;;1.15;;
24650;SDS011;12783;48.824;8.662;2022-07-09T08:50:32;4.72;;;1.38;;
24650;SDS011;12783;48.824;8.662;2022-07-09T08:53:01;2.85;;;1.23;;
24650;SDS011;12783;48.824;8.662;2022-07-09T08:55:29;4.03;;;1.30;;
24650;SDS011;12783;48.824;8.662;2022-07-09T08:57:58;7.18;;;1.27;;
24650;SDS011;12783;48.824;8.662;2022-07-09T09:00:26;4.25;;;1.25;;
24650;SDS011;12783;48.824;8.662;2022-07-09T09:02:53;3.85;;;1.17;;
24650;SDS011;12783;48.824;8.662;2022-07-09T09:05:23;3.97;;;1.08;;
24650;SDS011;12783;48.824;8.662;2022-07-09T09:07:50;3.92;;;1.00;;
24650;SDS011;12783;48.824;8.662;2022-07-09T09:10:23;5.38;;;1.30;;
24650;SDS011;12783;48.824;8.662;2022-07-09T09:12:59;5.25;;;1.13;;
24650;SDS011;12783;48.824;8.662;2022-07-09T09:15:27;4.30;;;1.20;;
24650;SDS011;12783;48.824;8.662;2022-07-09T09:17:56;4.82;;;1.27;;
24650;SDS011;12783;48.824;8.662;2022-07-09T09:20:24;4.00;;;1.25;;
24650;SDS011;12783;48.824;8.662;2022-07-09T09:22:51;4.80;;;1.42;;
24650;SDS011;12783;48.824;8.662;2022-07-09T09:25:26;5.20;;;1.02;;
24650;SDS011;12783;48.824;8.662;2022-07-09T09:27:54;3.67;;;1.00;;
24650;SDS011;12783;48.824;8.662;2022-07-09T09:30:26;1.33;;;0.80;;
24650;SDS011;12783;48.824;8.662;2022-07-09T09:35:32;3.67;;;0.80;;
24650;SDS011;12783;48.824;8.662;2022-07-09T09:38:00;1.13;;;0.70;;
24650;SDS011;12783;48.824;8.662;2022-07-09T09:40:27;2.28;;;0.80;;
24650;SDS011;12783;48.824;8.662;2022-07-09T09:42:54;5.97;;;0.77;;
24650;SDS011;12783;48.824;8.662;2022-07-09T09:45:25;1.33;;;0.57;;
24650;SDS011;12783;48.824;8.662;2022-07-09T09:47:53;3.33;;;0.80;;
24650;SDS011;12783;48.824;8.662;2022-07-09T09:50:22;0.95;;;0.50;;
24650;SDS011;12783;48.824;8.662;2022-07-09T09:52:52;1.77;;;0.60;;
24650;SDS011;12783;48.824;8.662;2022-07-09T09:55:21;4.03;;;0.88;;
24650;SDS011;12783;48.824;8.662;2022-07-09T09:57:49;1.98;;;0.70;;
24650;SDS011;12783;48.824;8.662;2022-07-09T10:00:18;5.18;;;0.75;;
24650;SDS011;12783;48.824;8.662;2022-07-09T10:02:46;2.20;;;0.75;;
24650;SDS011;12783;48.824;8.662;2022-07-09T10:05:14;1.20;;;0.68;;
24650;SDS011;12783;48.824;8.662;2022-07-09T10:07:41;1.67;;;0.70;;
24650;SDS011;12783;48.824;8.662;2022-07-09T10:10:16;1.60;;;0.60;;
24650;SDS011;12783;48.824;8.662;2022-07-09T10:12:45;5.13;;;1.95;;
24650;SDS011;12783;48.824;8.662;2022-07-09T10:15:24;3.53;;;2.45;;
24650;SDS011;12783;48.824;8.662;2022-07-09T10:17:54;2.17;;;0.95;;
24650;SDS011;12783;48.824;8.662;2022-07-09T10:20:33;1.85;;;0.90;;
24650;SDS011;12783;48.824;8.662;2022-07-09T10:23:01;2.80;;;0.80;;
24650;SDS011;12783;48.824;8.662;2022-07-09T10:25:30;1.58;;;1.00;;
24650;SDS011;12783;48.824;8.662;2022-07-09T10:28:17;3.35;;;0.95;;
24650;SDS011;12783;48.824;8.662;2022-07-09T10:30:46;2.22;;;0.80;;
24650;SDS011;12783;48.824;8.662;2022-07-09T10:33:22;1.23;;;0.80;;
24650;SDS011;12783;48.824;8.662;2022-07-09T10:36:08;1.40;;;0.70;;
24650;SDS011;12783;48.824;8.662;2022-07-09T10:38:52;1.87;;;0.80;;
24650;SDS011;12783;48.824;8.662;2022-07-09T10:41:24;1.90;;;0.88;;
24650;SDS011;12783;48.824;8.662;2022-07-09T10:43:51;1.45;;;0.95;;
24650;SDS011;12783;48.824;8.662;2022-07-09T10:46:19;7.28;;;0.80;;
24650;SDS011;12783;48.824;8.662;2022-07-09T10:48:49;4.70;;;1.20;;
24650;SDS011;12783;48.824;8.662;2022-07-09T10:51:17;3.25;;;1.10;;
24650;SDS011;12783;48.824;8.662;2022-07-09T10:53:45;7.85;;;1.50;;
24650;SDS011;12783;48.824;8.662;2022-07-09T10:56:16;4.45;;;1.00;;
24650;SDS011;12783;48.824;8.662;2022-07-09T10:58:45;4.28;;;1.33;;
24650;SDS011;12783;48.824;8.662;2022-07-09T11:01:20;1.75;;;0.90;;
24650;SDS011;12783;48.824;8.662;2022-07-09T11:03:51;1.92;;;1.00;;
24650;SDS011;12783;48.824;8.662;2022-07-09T11:06:20;3.17;;;1.30;;
24650;SDS011;12783;48.824;8.662;2022-07-09T11:08:47;3.85;;;0.90;;
24650;SDS011;12783;48.824;8.662;2022-07-09T11:11:23;1.85;;;0.70;;
24650;SDS011;12783;48.824;8.662;2022-07-09T11:13:51;1.90;;;0.90;;
24650;SDS011;12783;48.824;8.662;2022-07-09T11:16:21;1.67;;;0.77;;
24650;SDS011;12783;48.824;8.662;2022-07-09T11:18:50;3.38;;;0.82;;
24650;SDS011;12783;48.824;8.662;2022-07-09T11:21:24;1.38;;;0.80;;
24650;SDS011;12783;48.824;8.662;2022-07-09T11:23:52;9.00;;;1.40;;
24650;SDS011;12783;48.824;8.662;2022-07-09T11:26:19;2.45;;;0.90;;
24650;SDS011;12783;48.824;8.662;2022-07-09T11:28:46;2.03;;;1.00;;
24650;SDS011;12783;48.824;8.662;2022-07-09T11:31:14;1.40;;;0.77;;
24650;SDS011;12783;48.824;8.662;2022-07-09T11:33:43;2.03;;;0.80;;
24650;SDS011;12783;48.824;8.662;2022-07-09T11:36:36;3.60;;;1.00;;
24650;SDS011;12783;48.824;8.662;2022-07-09T11:39:08;60.10;;;2.55;;
24650;SDS011;12783;48.824;8.662;2022-07-09T11:41:42;4.53;;;1.00;;
24650;SDS011;12783;48.824;8.662;2022-07-09T11:44:11;2.83;;;0.70;;
24650;SDS011;12783;48.824;8.662;2022-07-09T11:49:34;4.27;;;1.20;;
24650;SDS011;12783;48.824;8.662;2022-07-09T11:52:16;2.70;;;1.13;;
24650;SDS011;12783;48.824;8.662;2022-07-09T11:55:00;5.38;;;1.20;;
24650;SDS011;12783;48.824;8.662;2022-07-09T11:57:30;1.55;;;1.00;;
24650;SDS011;12783;48.824;8.662;2022-07-09T12:00:00;3.67;;;1.08;;
24650;SDS011;12783;48.824;8.662;2022-07-09T12:02:30;3.30;;;1.20;;
24650;SDS011;12783;48.824;8.662;2022-07-09T12:05:06;2.65;;;1.00;;
24650;SDS011;12783;48.824;8.662;2022-07-09T12:07:38;2.10;;;1.10;;
24650;SDS011;12783;48.824;8.662;2022-07-09T12:12:35;3.88;;;1.20;;
24650;SDS011;12783;48.824;8.662;2022-07-09T12:15:03;5.30;;;1.20;;
24650;SDS011;12783;48.824;8.662;2022-07-09T12:17:34;6.78;;;1.10;;
24650;SDS011;12783;48.824;8.662;2022-07-09T12:20:02;2.13;;;1.05;;
24650;SDS011;12783;48.824;8.662;2022-07-09T12:22:33;6.47;;;1.23;;
24650;SDS011;12783;48.824;8.662;2022-07-09T12:25:00;7.00;;;1.17;;
24650;SDS011;12783;48.824;8.662;2022-07-09T12:27:27;2.90;;;1.45;;
24650;SDS011;12783;48.824;8.662;2022-07-09T12:29:54;2.72;;;1.20;;
24650;SDS011;12783;48.824;8.662;2022-07-09T12:32:21;4.05;;;0.90;;
24650;SDS011;12783;48.824;8.662;2022-07-09T12:34:48;4.32;;;1.10;;
24650;SDS011;12783;48.824;8.662;2022-07-09T12:37:15;3.88;;;0.90;;
24650;SDS011;12783;48.824;8.662;2022-07-09T12:39:42;4.97;;;0.90;;
24650;SDS011;12783;48.824;8.662;2022-07-09T12:44:44;4.72;;;1.15;;
24650;SDS011;12783;48.824;8.662;2022-07-09T12:47:15;2.67;;;1.20;;
24650;SDS011;12783;48.824;8.662;2022-07-09T12:49:43;3.60;;;1.05;;
24650;SDS011;12783;48.824;8.662;2022-07-09T12:52:10;3.00;;;0.90;;
24650;SDS011;12783;48.824;8.662;2022-07-09T12:54:37;1.60;;;0.65;;
24650;SDS011;12783;48.824;8.662;2022-07-09T12:57:04;4.63;;;1.15;;
24650;SDS011;12783;48.824;8.662;2022-07-09T12:59:35;1.73;;;0.80;;
24650;SDS011;12783;48.824;8.662;2022-07-09T13:02:03;1.13;;;0.80;;
24650;SDS011;12783;48.824;8.662;2022-07-09T13:04:31;1.30;;;1.00;;
24650;SDS011;12783;48.824;8.662;2022-07-09T13:06:59;2.67;;;1.00;;
24650;SDS011;12783;48.824;8.662;2022-07-09T13:09:26;2.78;;;0.95;;
24650;SDS011;12783;48.824;8.662;2022-07-09T13:11:52;4.32;;;1.42;;
24650;SDS011;12783;48.824;8.662;2022-07-09T13:14:19;1.88;;;1.13;;
24650;SDS011;12783;48.824;8.662;2022-07-09T13:16:46;4.70;;;1.20;;
24650;SDS011;12783;48.824;8.662;2022-07-09T13:19:33;3.35;;;1.13;;
24650;SDS011;12783;48.824;8.662;2022-07-09T13:22:00;1.35;;;1.00;;
24650;SDS011;12783;48.824;8.662;2022-07-09T13:24:26;3.55;;;1.23;;
24650;SDS011;12783;48.824;8.662;2022-07-09T13:26:53;2.42;;;0.95;;
24650;SDS011;12783;48.824;8.662;2022-07-09T13:29:20;4.45;;;1.48;;
24650;SDS011;12783;48.824;8.662;2022-07-09T13:31:47;2.97;;;1.05;;
24650;SDS011;12783;48.824;8.662;2022-07-09T13:34:14;6.47;;;1.30;;
24650;SDS011;12783;48.824;8.662;2022-07-09T13:36:41;2.35;;;1.08;;
24650;SDS011;12783;48.824;8.662;2022-07-09T13:39:08;1.23;;;0.88;;
24650;SDS011;12783;48.824;8.662;2022-07-09T13:41:35;3.90;;;1.23;;
24650;SDS011;12783;48.824;8.662;2022-07-09T13:44:02;2.75;;;1.30;;
24650;SDS011;12783;48.824;8.662;2022-07-09T13:46:29;5.07;;;1.20;;
24650;SDS011;12783;48.824;8.662;2022-07-09T13:48:56;2.25;;;1.15;;
24650;SDS011;12783;48.824;8.662;2022-07-09T13:51:23;1.67;;;1.10;;
24650;SDS011;12783;48.824;8.662;2022-07-09T13:53:50;3.40;;;1.08;;
24650;SDS011;12783;48.824;8.662;2022-07-09T13:56:17;2.17;;;1.75;;
24650;SDS011;12783;48.824;8.662;2022-07-09T13:58:46;7.90;;;3.10;;
24650;SDS011;12783;48.824;8.662;2022-07-09T14:01:13;4.32;;;1.40;;
24650;SDS011;12783;48.824;8.662;2022-07-09T14:03:41;6.18;;;1.27;;
24650;SDS011;12783;48.824;8.662;2022-07-09T14:06:08;2.25;;;1.10;;
24650;SDS011;12783;48.824;8.662;2022-07-09T14:08:56;4.60;;;1.45;;
24650;SDS011;12783;48.824;8.662;2022-07-09T14:11:24;5.10;;;1.75;;
24650;SDS011;12783;48.824;8.662;2022-07-09T14:13:50;1.65;;;1.30;;
24650;SDS011;12783;48.824;8.662;2022-07-09T14:16:19;3.55;;;1.20;;
24650;SDS011;12783;48.824;8.662;2022-07-09T14:18:46;1.45;;;1.27;;
24650;SDS011;12783;48.824;8.662;2022-07-09T14:21:13;2.50;;;1.10;;
24650;SDS011;12783;48.824;8.662;2022-07-09T14:23:40;7.97;;;1.58;;
24650;SDS011;12783;48.824;8.662;2022-07-09T14:26:07;2.45;;;1.20;;
24650;SDS011;12783;48.824;8.662;2022-07-09T14:28:34;3.30;;;1.00;;
24650;SDS011;12783;48.824;8.662;2022-07-09T14:31:02;2.42;;;1.17;;
24650;SDS011;12783;48.824;8.662;2022-07-09T14:33:29;3.70;;;1.10;;
24650;SDS011;12783;48.824;8.662;2022-07-09T14:35:55;2.70;;;1.40;;
24650;SDS011;12783;48.824;8.662;2022-07-09T14:38:22;6.00;;;1.42;;
24650;SDS011;12783;48.824;8.662;2022-07-09T14:40:49;3.33;;;1.20;;
24650;SDS011;12783;48.824;8.662;2022-07-09T14:43:16;2.95;;;1.15;;
24650;SDS011;12783;48.824;8.662;2022-07-09T14:45:43;4.35;;;1.05;;
24650;SDS011;12783;48.824;8.662;2022-07-09T14:48:10;2.35;;;1.13;;
24650;SDS011;12783;48.824;8.662;2022-07-09T14:50:36;4.70;;;1.58;;
24650;SDS011;12783;48.824;8.662;2022-07-09T14:53:03;1.35;;;1.10;;
24650;SDS011;12783;48.824;8.662;2022-07-09T14:55:32;3.30;;;1.33;;
24650;SDS011;12783;48.824;8.662;2022-07-09T14:57:59;2.05;;;1.17;;
24650;SDS011;12783;48.824;8.662;2022-07-09T15:00:26;2.33;;;1.38;;
24650;SDS011;12783;48.824;8.662;2022-07-09T15:02:53;4.90;;;1.10;;
24650;SDS011;12783;48.824;8.662;2022-07-09T15:05:20;1.55;;;1.13;;